Time;durP1;ratioP1;P1;durP2;ratioP2;P2;SDS_P1;SDS_P2;PMS_P1;PMS_P2;Temp;Humidity;BMP_temperature;BMP_pressure;BME280_temperature;BME280_humidity;BME280_pressure;Samples;Min_cycle;Max_cycle;Signal;HPM_P1;HPM_P2
2021/11/09 00:00:10;;;;;;;;;;;;;;;2.67;83.92;97729.97;30001;983;1875;-59
2021/11/09 00:00:44;;;;;;;;;;;;;;;2.66;84.01;97728.31;30001;983;1876;-59
2021/11/09 00:01:15;;;;;;;;;;;;;;;2.65;84.10;97728.53;30001;983;1876;-59
2021/11/09 00:01:54;;;;;;;;;;;;;;;2.62;84.43;97729.81;30001;983;1858;-58
2021/11/09 00:02:25;;;;;;;;;;;;;;;2.58;84.59;97731.28;30001;983;1871;-60
2021/11/09 00:02:58;;;;;;;;;;;;;;;2.57;84.67;97729.63;30001;975;1893;-59
2021/11/09 00:03:30;;;;;;;;;;;;;;;2.54;85.17;97729.25;30001;982;1876;-60
2021/11/09 00:04:05;;;;;;;;;;;;;;;2.51;85.04;97724.34;30001;982;1876;-60
2021/11/09 00:04:45;;;;;;;;;;;;;;;2.46;85.15;97721.50;30001;982;1876;-60
2021/11/09 00:05:19;;;;;;;;;;;;;;;2.45;85.16;97731.41;30001;982;1876;-58
2021/11/09 00:06:57;;;;;;;;;;;;;;;2.44;85.46;97724.41;30001;983;1871;-59
2021/11/09 00:07:39;;;;;;;;;;;;;;;2.45;85.48;97725.22;30001;983;1858;-59
2021/11/09 00:08:13;;;;;;;;;;;;;;;2.45;85.29;97720.69;30001;983;1871;-58
2021/11/09 00:08:53;;;;;;;;;;;;;;;2.46;85.24;97722.31;30001;983;1876;-59
2021/11/09 00:09:27;;;;;;;;;;;;;;;2.46;85.26;97721.50;30001;983;1858;-59
2021/11/09 00:09:59;;;;;;;;;;;;;;;2.46;85.25;97716.16;30001;983;1871;-60
2021/11/09 00:10:30;;;;;;;;;;;;;;;2.47;85.20;97723.13;30001;983;1876;-58
2021/11/09 00:11:01;;;;;;;;;;;;;;;2.45;85.16;97715.31;30001;982;1876;-59
2021/11/09 00:11:32;;;;;;;;;;;;;;;2.45;85.21;97717.19;30001;982;1876;-60
2021/11/09 00:12:03;;;;;;;;;;;;;;;2.45;85.15;97726.03;30001;982;1876;-59
2021/11/09 00:12:36;;;;;;;;;;;;;;;2.45;85.06;97723.34;30001;982;1876;-59
2021/11/09 00:13:07;;;;;;;;;;;;;;;2.47;85.08;97723.97;30001;982;1876;-59
2021/11/09 00:13:38;;;;;;;;;;;;;;;2.47;85.00;97723.97;30001;983;1857;-59
2021/11/09 00:14:09;;;;;;;;;;;;;;;2.47;85.12;97721.28;30001;983;1853;-59
2021/11/09 00:14:40;;;;;;;;;;;;;;;2.47;85.07;97723.13;30001;983;1875;-59
2021/11/09 00:15:15;;;;;;;;;;;;;;;2.49;85.02;97724.56;30001;983;1875;-59
2021/11/09 00:15:47;;;;;;;;;;;;;;;2.51;85.24;97727.03;30001;983;1876;-59
2021/11/09 00:16:18;;;;;;;;;;;;;;;2.50;84.98;97733.41;30001;983;1876;-60
2021/11/09 00:16:49;;;;;;;;;;;;;;;2.49;85.02;97724.56;30001;983;1858;-60
2021/11/09 00:17:20;;;;;;;;;;;;;;;2.48;84.97;97725.59;30001;983;1871;-60
2021/11/09 00:17:53;;;;;;;;;;;;;;;2.47;85.02;97723.97;30001;982;1858;-59
2021/11/09 00:18:24;;;;;;;;;;;;;;;2.47;84.81;97723.97;30001;982;1871;-59
2021/11/09 00:18:55;;;;;;;;;;;;;;;2.46;84.91;97727.69;30001;982;1876;-59
2021/11/09 00:19:26;;;;;;;;;;;;;;;2.46;85.00;97725.00;30001;982;1876;-59
2021/11/09 00:19:57;;;;;;;;;;;;;;;2.46;84.91;97725.00;30001;982;1876;-60
2021/11/09 00:20:29;;;;;;;;;;;;;;;2.45;84.90;97720.69;30001;982;1876;-60
2021/11/09 00:21:01;;;;;;;;;;;;;;;2.43;84.93;97728.13;30001;983;1875;-59
2021/11/09 00:21:32;;;;;;;;;;;;;;;2.42;85.09;97715.78;30001;983;1858;-59
2021/11/09 00:22:03;;;;;;;;;;;;;;;2.42;84.92;97721.16;30001;966;1896;-59
2021/11/09 00:22:34;;;;;;;;;;;;;;;2.42;84.86;97720.34;30001;983;1875;-59
2021/11/09 00:23:05;;;;;;;;;;;;;;;2.39;85.04;97721.59;30001;983;1875;-59
2021/11/09 00:23:36;;;;;;;;;;;;;;;2.40;84.97;97723.22;30001;983;1876;-60
2021/11/09 00:24:07;;;;;;;;;;;;;;;2.39;84.98;97721.59;30001;983;1876;-60
2021/11/09 00:24:38;;;;;;;;;;;;;;;2.39;85.00;97721.59;30001;983;1762;-60
2021/11/09 00:25:09;;;;;;;;;;;;;;;2.39;84.87;97729.63;30001;982;1871;-59
2021/11/09 00:25:40;;;;;;;;;;;;;;;2.39;85.00;97721.59;30001;982;1876;-60
2021/11/09 00:26:11;;;;;;;;;;;;;;;2.38;84.97;97725.31;30001;982;1876;-60
2021/11/09 00:26:42;;;;;;;;;;;;;;;2.38;84.96;97736.03;30001;982;1876;-59
2021/11/09 00:27:13;;;;;;;;;;;;;;;2.36;84.90;97730.06;30001;982;1859;-59
2021/11/09 00:27:44;;;;;;;;;;;;;;;2.34;84.94;97729.47;30001;982;1872;-58
2021/11/09 00:28:14;;;;;;;;;;;;;;;2.34;85.06;97730.28;30001;982;1876;-58
2021/11/09 00:28:46;;;;;;;;;;;;;;;2.33;85.01;97725.97;30001;983;1875;-59
2021/11/09 00:29:17;;;;;;;;;;;;;;;2.33;84.99;97736.66;30001;983;1875;-60
2021/11/09 00:29:48;;;;;;;;;;;;;;;2.33;84.93;97727.81;30001;983;1875;-59
2021/11/09 00:30:20;;;;;;;;;;;;;;;2.32;84.78;97731.53;30001;983;1875;-59
2021/11/09 00:30:51;;;;;;;;;;;;;;;2.32;84.99;97735.03;30001;983;1876;-59
2021/11/09 00:31:22;;;;;;;;;;;;;;;2.32;85.02;97736.91;30001;983;1876;-59
2021/11/09 00:31:53;;;;;;;;;;;;;;;2.32;85.12;97734.22;30001;983;1876;-60
2021/11/09 00:32:24;;;;;;;;;;;;;;;2.31;85.04;97724.53;30001;983;1858;-60
2021/11/09 00:32:56;;;;;;;;;;;;;;;2.31;85.04;97732.56;30001;982;1871;-59
2021/11/09 00:33:27;;;;;;;;;;;;;;;2.32;85.00;97731.53;30001;982;1876;-59
2021/11/09 00:33:57;;;;;;;;;;;;;;;2.32;85.25;97728.84;30001;982;1876;-60
2021/11/09 00:34:28;;;;;;;;;;;;;;;2.32;84.91;97731.53;30001;982;1876;-59
2021/11/09 00:35:00;;;;;;;;;;;;;;;2.31;84.80;97729.91;30001;982;1876;-59
2021/11/09 00:35:31;;;;;;;;;;;;;;;2.30;84.83;97728.25;30001;982;1876;-59
2021/11/09 00:36:02;;;;;;;;;;;;;;;2.30;84.78;97733.62;30001;983;1875;-60
2021/11/09 00:36:33;;;;;;;;;;;;;;;2.28;84.80;97730.34;30001;983;1875;-59
2021/11/09 00:37:07;;;;;;;;;;;;;;;2.27;84.86;97728.69;30001;983;1858;-58
2021/11/09 00:37:38;;;;;;;;;;;;;;;2.26;84.90;97727.88;30001;983;1871;-59
2021/11/09 00:38:11;;;;;;;;;;;;;;;2.26;84.78;97721.69;30001;961;1898;-63
2021/11/09 00:38:42;;;;;;;;;;;;;;;2.24;84.96;97729.13;30001;983;1858;-60
2021/11/09 00:39:13;;;;;;;;;;;;;;;2.21;85.09;97730.37;30001;983;1871;-59
2021/11/09 00:39:44;;;;;;;;;;;;;;;2.19;85.36;97734.31;30001;983;1876;-60
2021/11/09 00:40:15;;;;;;;;;;;;;;;2.19;85.17;97728.97;30001;982;1876;-59
2021/11/09 00:40:47;;;;;;;;;;;;;;;2.17;85.61;97729.19;30001;982;1876;-59
2021/11/09 00:41:18;;;;;;;;;;;;;;;2.18;85.40;97730.00;30001;982;1858;-59
2021/11/09 00:41:49;;;;;;;;;;;;;;;2.18;85.45;97735.34;30001;982;1872;-59
2021/11/09 00:42:20;;;;;;;;;;;;;;;2.17;85.39;97734.53;30001;982;1876;-59
2021/11/09 00:42:51;;;;;;;;;;;;;;;2.17;85.30;97731.03;30001;983;1875;-59
2021/11/09 00:43:22;;;;;;;;;;;;;;;2.18;85.39;97736.19;30001;983;1875;-59
2021/11/09 00:43:53;;;;;;;;;;;;;;;2.17;85.42;97736.38;30001;983;1875;-58
2021/11/09 00:44:24;;;;;;;;;;;;;;;2.18;85.47;97740.72;30001;983;1875;-60
2021/11/09 00:44:55;;;;;;;;;;;;;;;2.20;85.52;97738.63;30001;983;1875;-59
2021/11/09 00:45:25;;;;;;;;;;;;;;;2.21;85.22;97734.91;30001;983;1875;-60
2021/11/09 00:45:57;;;;;;;;;;;;;;;2.21;85.47;97745.63;30001;983;1876;-59
2021/11/09 00:46:27;;;;;;;;;;;;;;;2.23;85.27;97741.69;30001;983;1858;-59
2021/11/09 00:46:59;;;;;;;;;;;;;;;2.24;85.40;97739.84;30001;983;1871;-59
2021/11/09 00:47:30;;;;;;;;;;;;;;;2.24;85.24;97740.66;30001;983;1876;-59
2021/11/09 00:48:01;;;;;;;;;;;;;;;2.23;85.25;97732.84;30001;982;1876;-59
2021/11/09 00:48:32;;;;;;;;;;;;;;;2.23;85.21;97738.19;30001;982;1876;-59
2021/11/09 00:49:03;;;;;;;;;;;;;;;2.21;85.11;97740.28;30001;982;1876;-57
2021/11/09 00:49:34;;;;;;;;;;;;;;;2.17;85.09;97742.56;30001;982;1876;-59
2021/11/09 00:50:07;;;;;;;;;;;;;;;2.16;85.24;97737.44;30001;982;1876;-59
2021/11/09 00:50:39;;;;;;;;;;;;;;;2.17;85.27;97744.44;30001;962;1875;-59
2021/11/09 00:51:11;;;;;;;;;;;;;;;2.16;85.30;97746.28;30001;983;1875;-59
2021/11/09 00:51:43;;;;;;;;;;;;;;;2.15;85.29;97741.97;30001;983;1858;-59
2021/11/09 00:52:15;;;;;;;;;;;;;;;2.14;85.41;97743.00;30001;983;1871;-59
2021/11/09 00:52:46;;;;;;;;;;;;;;;2.14;85.41;97750.22;30001;983;1876;-59
2021/11/09 00:53:18;;;;;;;;;;;;;;;2.11;85.49;97745.28;30001;983;1876;-59
2021/11/09 00:53:48;;;;;;;;;;;;;;;2.09;85.83;97747.38;30001;983;1858;-56
2021/11/09 00:54:20;;;;;;;;;;;;;;;2.07;85.87;97744.13;30001;983;1871;-56
2021/11/09 00:54:51;;;;;;;;;;;;;;;2.05;86.02;97746.19;30001;983;1858;-59
2021/11/09 00:55:21;;;;;;;;;;;;;;;2.04;85.93;97744.53;30001;982;1871;-59
2021/11/09 00:55:53;;;;;;;;;;;;;;;2.03;86.18;97742.91;30001;982;1876;-60
2021/11/09 00:56:24;;;;;;;;;;;;;;;2.01;85.99;97751.97;30001;982;1876;-60
2021/11/09 00:56:55;;;;;;;;;;;;;;;2.01;86.11;97751.97;30001;982;1876;-59
2021/11/09 00:57:26;;;;;;;;;;;;;;;2.00;86.00;97753.00;30001;982;1876;-59
2021/11/09 00:57:57;;;;;;;;;;;;;;;2.01;86.06;97748.47;30001;983;1875;-59
2021/11/09 00:58:28;;;;;;;;;;;;;;;2.01;86.05;97745.81;30001;983;1875;-59
2021/11/09 00:58:59;;;;;;;;;;;;;;;2.01;86.19;97745.81;30001;983;1858;-58
2021/11/09 00:59:30;;;;;;;;;;;;;;;2.00;86.14;97744.97;30001;983;1871;-58
2021/11/09 01:00:01;;;;;;;;;;;;;;;2.00;86.04;97755.69;30001;983;1875;-59
2021/11/09 01:00:33;;;;;;;;;;;;;;;2.00;86.15;97747.66;30001;983;1876;-59
2021/11/09 01:01:04;;;;;;;;;;;;;;;2.01;86.14;97754.66;30001;983;1876;-59
2021/11/09 01:01:35;;;;;;;;;;;;;;;2.00;86.16;97742.31;30001;983;1876;-59
2021/11/09 01:02:07;;;;;;;;;;;;;;;2.01;85.92;97746.63;30001;983;1858;-59
2021/11/09 01:02:37;;;;;;;;;;;;;;;2.03;86.01;97753.63;30001;983;1854;-59
2021/11/09 01:03:09;;;;;;;;;;;;;;;2.02;86.07;97750.13;30001;982;1876;-57
2021/11/09 01:03:40;;;;;;;;;;;;;;;2.03;86.10;97750.94;30001;982;1876;-59
2021/11/09 01:04:11;;;;;;;;;;;;;;;2.01;86.13;97751.97;30001;982;1858;-59
2021/11/09 01:04:42;;;;;;;;;;;;;;;2.00;86.18;97747.66;30001;982;1872;-59
2021/11/09 01:05:14;;;;;;;;;;;;;;;2.01;85.93;97749.28;30001;983;1875;-60
2021/11/09 01:05:45;;;;;;;;;;;;;;;2.01;86.18;97751.97;30001;983;1875;-59
2021/11/09 01:06:16;;;;;;;;;;;;;;;1.99;86.05;97754.03;30001;983;1876;-59
2021/11/09 01:06:47;;;;;;;;;;;;;;;2.00;85.94;97755.69;30001;983;1858;-60
2021/11/09 01:07:18;;;;;;;;;;;;;;;1.99;86.04;97756.72;30001;983;1871;-59
2021/11/09 01:07:55;;;;;;;;;;;;;;;1.99;86.16;97759.41;30001;983;1876;-59
2021/11/09 01:08:26;;;;;;;;;;;;;;;1.99;86.18;97755.91;30001;983;1876;-60
2021/11/09 01:08:57;;;;;;;;;;;;;;;1.97;85.94;97750.75;30001;983;1876;-60
2021/11/09 01:09:28;;;;;;;;;;;;;;;1.97;86.22;97756.12;30001;982;1858;-59
2021/11/09 01:09:58;;;;;;;;;;;;;;;1.98;86.20;97759.63;30001;982;1871;-60
2021/11/09 01:10:32;;;;;;;;;;;;;;;1.95;86.26;97747.47;30001;982;1876;-59
2021/11/09 01:11:03;;;;;;;;;;;;;;;1.96;86.18;97754.47;30001;982;1876;-59
2021/11/09 01:11:34;;;;;;;;;;;;;;;1.97;86.33;97756.12;30001;982;1876;-59
2021/11/09 01:12:07;;;;;;;;;;;;;;;1.97;86.42;97761.47;30001;982;1876;-60
2021/11/09 01:12:38;;;;;;;;;;;;;;;1.96;86.52;97759.00;30001;982;1859;-59
2021/11/09 01:13:09;;;;;;;;;;;;;;;1.95;86.33;97755.50;30001;983;1871;-60
2021/11/09 01:13:40;;;;;;;;;;;;;;;1.96;86.35;97757.16;30001;983;1875;-59
2021/11/09 01:14:11;;;;;;;;;;;;;;;1.96;86.06;97759.84;30001;983;1875;-60
2021/11/09 01:14:42;;;;;;;;;;;;;;;1.98;85.96;97762.28;30001;983;1876;-58
2021/11/09 01:15:14;;;;;;;;;;;;;;;1.96;85.90;97762.50;30001;983;1876;-59
2021/11/09 01:15:50;;;;;;;;;;;;;;;1.94;86.08;97756.56;30001;983;1858;-59
2021/11/09 01:16:20;;;;;;;;;;;;;;;1.93;85.97;97757.59;30001;983;1871;-59
2021/11/09 01:16:52;;;;;;;;;;;;;;;1.92;85.91;97755.13;30001;983;1876;-58
2021/11/09 01:17:23;;;;;;;;;;;;;;;1.91;86.13;97754.31;30001;982;1876;-58
2021/11/09 01:17:55;;;;;;;;;;;;;;;1.91;86.07;97750.81;30001;982;1876;-59
2021/11/09 01:18:32;;;;;;;;;;;;;;;1.89;86.08;97764.41;30001;982;1876;-60
2021/11/09 01:19:05;;;;;;;;;;;;;;;1.87;86.15;97761.13;30001;982;1876;-60
2021/11/09 01:19:38;;;;;;;;;;;;;;;1.86;86.19;97764.84;30001;983;1875;-59
2021/11/09 01:20:11;;;;;;;;;;;;;;;1.87;86.32;97765.66;30001;983;1858;-59
2021/11/09 01:20:42;;;;;;;;;;;;;;;1.86;86.42;97764.84;30001;983;1871;-59
2021/11/09 01:21:14;;;;;;;;;;;;;;;1.86;86.23;97764.00;30001;983;1875;-60
2021/11/09 01:21:46;;;;;;;;;;;;;;;1.86;86.40;97762.16;30002;983;1875;-59
2021/11/09 01:22:17;;;;;;;;;;;;;;;1.86;86.30;97762.16;30002;983;1876;-59
2021/11/09 01:22:51;;;;;;;;;;;;;;;1.85;86.57;97757.84;30002;983;1876;-56
2021/11/09 01:23:23;;;;;;;;;;;;;;;1.84;86.60;97758.88;30002;983;1858;-56
2021/11/09 01:23:54;;;;;;;;;;;;;;;1.83;86.66;97753.75;30002;983;1871;-60
2021/11/09 01:24:25;;;;;;;;;;;;;;;1.80;87.02;97755.00;30002;983;1858;-58
2021/11/09 01:24:56;;;;;;;;;;;;;;;1.81;87.07;97755.81;30002;982;1871;-59
2021/11/09 01:25:28;;;;;;;;;;;;;;;1.80;87.26;97749.62;30002;982;1876;-59
2021/11/09 01:25:59;;;;;;;;;;;;;;;1.79;87.44;97753.34;30002;982;1876;-59
2021/11/09 01:26:31;;;;;;;;;;;;;;;1.78;87.58;97754.38;30002;982;1859;-60
2021/11/09 01:27:02;;;;;;;;;;;;;;;1.77;87.78;97758.09;30002;983;1871;-59
2021/11/09 01:27:33;;;;;;;;;;;;;;;1.76;87.69;97755.63;30002;983;1875;-59
2021/11/09 01:28:04;;;;;;;;;;;;;;;1.76;87.60;97755.63;30002;983;1875;-56
2021/11/09 01:28:36;;;;;;;;;;;;;;;1.76;87.51;97763.66;30002;983;1876;-59
2021/11/09 01:29:07;;;;;;;;;;;;;;;1.76;87.55;97761.81;30002;983;1875;-59
2021/11/09 01:29:38;;;;;;;;;;;;;;;1.76;87.68;97753.78;30002;983;1858;-59
2021/11/09 01:30:10;;;;;;;;;;;;;;;1.75;87.81;97757.47;30002;983;1871;-60
2021/11/09 01:30:42;;;;;;;;;;;;;;;1.74;88.04;97753.16;30002;983;1876;-59
2021/11/09 01:31:13;;;;;;;;;;;;;;;1.73;87.66;97759.59;30002;983;1858;-58
2021/11/09 01:31:44;;;;;;;;;;;;;;;1.73;87.73;97746.22;30002;983;1871;-55
2021/11/09 01:32:15;;;;;;;;;;;;;;;1.75;87.84;97762.00;30002;982;1876;-59
2021/11/09 01:32:48;;;;;;;;;;;;;;;1.74;87.77;97765.72;30002;982;1876;-57
2021/11/09 01:33:18;;;;;;;;;;;;;;;1.74;87.75;97760.37;30002;982;1876;-58
2021/11/09 01:33:50;;;;;;;;;;;;;;;1.73;87.78;97759.59;30002;982;1876;-59
2021/11/09 01:34:21;;;;;;;;;;;;;;;1.73;88.10;97759.59;30002;974;1846;-59
2021/11/09 01:34:52;;;;;;;;;;;;;;;1.69;88.09;97753.03;30002;983;1875;-58
2021/11/09 01:35:23;;;;;;;;;;;;;;;1.69;88.24;97758.38;30002;983;1875;-58
2021/11/09 01:35:54;;;;;;;;;;;;;;;1.67;88.30;97761.25;30002;983;1858;-58
2021/11/09 01:36:25;;;;;;;;;;;;;;;1.66;88.35;97758.81;30002;983;1871;-58
2021/11/09 01:36:56;;;;;;;;;;;;;;;1.66;88.38;97748.09;30002;983;1875;-60
2021/11/09 01:37:27;;;;;;;;;;;;;;;1.65;88.13;97757.97;30002;983;1876;-60
2021/11/09 01:37:58;;;;;;;;;;;;;;;1.65;88.36;97763.34;30002;983;1858;-59
2021/11/09 01:38:29;;;;;;;;;;;;;;;1.65;88.33;97757.97;30002;983;1854;-58
2021/11/09 01:39:00;;;;;;;;;;;;;;;1.63;88.38;97754.69;30002;983;1876;-59
2021/11/09 01:39:31;;;;;;;;;;;;;;;1.63;88.40;97756.56;30002;983;1876;-59
2021/11/09 01:40:03;;;;;;;;;;;;;;;1.62;88.39;97761.09;30002;982;1876;-58
2021/11/09 01:40:35;;;;;;;;;;;;;;;1.63;88.08;97759.22;30002;982;1876;-59
2021/11/09 01:41:08;;;;;;;;;;;;;;;1.63;88.08;97756.56;30002;982;1876;-59
2021/11/09 01:41:39;;;;;;;;;;;;;;;1.63;88.12;97752.03;30002;982;1876;-61
2021/11/09 01:42:10;;;;;;;;;;;;;;;1.63;88.08;97765.41;30002;983;1858;-59
2021/11/09 01:42:41;;;;;;;;;;;;;;;1.64;88.16;97752.84;30002;983;1871;-59
2021/11/09 01:43:14;;;;;;;;;;;;;;;1.63;88.05;97754.69;30002;983;1875;-58
2021/11/09 01:43:45;;;;;;;;;;;;;;;1.64;88.06;97760.87;30002;983;1875;-59
2021/11/09 01:44:16;;;;;;;;;;;;;;;1.62;87.84;97757.59;30002;983;1875;-59
2021/11/09 01:44:47;;;;;;;;;;;;;;;1.62;87.97;97757.59;30002;983;1876;-58
2021/11/09 01:45:19;;;;;;;;;;;;;;;1.62;87.87;97760.25;30002;983;1876;-59
2021/11/09 01:45:50;;;;;;;;;;;;;;;1.63;87.94;97751.19;30002;983;1876;-59
2021/11/09 01:46:21;;;;;;;;;;;;;;;1.63;88.01;97749.34;30002;983;1858;-58
2021/11/09 01:46:52;;;;;;;;;;;;;;;1.65;88.05;97752.63;30002;983;1871;-56
2021/11/09 01:47:23;;;;;;;;;;;;;;;1.64;88.06;97750.16;30002;982;1876;-59
2021/11/09 01:47:54;;;;;;;;;;;;;;;1.65;87.89;97749.94;30002;982;1858;-59
2021/11/09 01:48:25;;;;;;;;;;;;;;;1.66;87.99;97748.09;30002;982;1872;-59
2021/11/09 01:48:56;;;;;;;;;;;;;;;1.67;88.11;97750.56;30002;982;1876;-59
2021/11/09 01:49:27;;;;;;;;;;;;;;;1.66;87.82;97748.09;30002;982;1876;-59
2021/11/09 01:49:58;;;;;;;;;;;;;;;1.68;87.96;97746.03;30002;983;1875;-59
2021/11/09 01:50:33;;;;;;;;;;;;;;;1.67;87.98;97747.88;30002;983;1875;-59
2021/11/09 01:51:06;;;;;;;;;;;;;;;1.70;87.67;97751.16;30002;983;1875;-59
2021/11/09 01:51:37;;;;;;;;;;;;;;;1.68;87.89;97748.72;30002;983;1858;-59
2021/11/09 01:52:08;;;;;;;;;;;;;;;1.68;87.96;97749.53;30002;983;1871;-59
2021/11/09 01:52:39;;;;;;;;;;;;;;;1.69;88.10;97747.66;30002;983;1876;-59
2021/11/09 01:53:11;;;;;;;;;;;;;;;1.69;87.97;97750.34;30002;983;1876;-59
2021/11/09 01:53:43;;;;;;;;;;;;;;;1.68;87.92;97740.69;30002;983;1876;-58
2021/11/09 01:54:14;;;;;;;;;;;;;;;1.70;88.06;97743.13;30002;982;1876;-57
2021/11/09 01:54:44;;;;;;;;;;;;;;;1.68;87.92;97740.69;30002;982;1876;-58
2021/11/09 01:55:17;;;;;;;;;;;;;;;1.66;88.21;97742.75;30002;982;1876;-58
2021/11/09 01:55:48;;;;;;;;;;;;;;;1.65;88.55;97738.44;30002;982;1876;-60
2021/11/09 01:56:22;;;;;;;;;;;;;;;1.64;88.41;97734.12;30002;982;1876;-58
2021/11/09 01:56:53;;;;;;;;;;;;;;;1.64;88.31;97739.47;30002;982;1859;-59
2021/11/09 01:57:25;;;;;;;;;;;;;;;1.64;88.35;97742.16;30002;983;1871;-59
2021/11/09 01:57:57;;;;;;;;;;;;;;;1.65;88.22;97738.44;30002;983;1875;-58
2021/11/09 01:58:29;;;;;;;;;;;;;;;1.65;88.27;97746.47;30002;983;1875;-59
2021/11/09 01:59:00;;;;;;;;;;;;;;;1.65;88.23;97738.44;30002;983;1875;-59
2021/11/09 01:59:32;;;;;;;;;;;;;;;1.67;88.32;97741.72;30002;983;1875;-59
2021/11/09 02:00:08;;;;;;;;;;;;;;;1.70;88.10;97743.97;30002;983;1876;-59
2021/11/09 02:00:49;;;;;;;;;;;;;;;1.70;88.11;97741.28;30002;983;1876;-58
2021/11/09 02:01:21;;;;;;;;;;;;;;;1.71;88.06;97745.59;30002;983;1876;-60
2021/11/09 02:01:52;;;;;;;;;;;;;;;1.69;87.72;97742.31;30002;982;1858;-58
2021/11/09 02:02:23;;;;;;;;;;;;;;;1.70;87.91;97743.97;30002;982;1871;-59
2021/11/09 02:02:54;;;;;;;;;;;;;;;1.68;87.98;97744.19;30002;982;1876;-58
2021/11/09 02:03:25;;;;;;;;;;;;;;;1.70;87.82;97749.31;30002;982;1876;-59
2021/11/09 02:03:58;;;;;;;;;;;;;;;1.69;88.03;97747.66;30002;982;1876;-59
2021/11/09 02:04:28;;;;;;;;;;;;;;;1.68;87.95;97746.03;30002;982;1876;-59
2021/11/09 02:04:59;;;;;;;;;;;;;;;1.67;87.90;97747.88;30002;983;1858;-59
2021/11/09 02:05:30;;;;;;;;;;;;;;;1.68;88.00;97746.84;30002;983;1871;-60
2021/11/09 02:06:01;;;;;;;;;;;;;;;1.70;88.00;97751.16;30002;983;1875;-56
2021/11/09 02:06:32;;;;;;;;;;;;;;;1.68;88.24;97748.72;30002;983;1875;-59
2021/11/09 02:07:03;;;;;;;;;;;;;;;1.68;88.08;97746.03;30002;983;1858;-58
2021/11/09 02:07:34;;;;;;;;;;;;;;;1.68;88.27;97752.19;30002;983;1871;-59
2021/11/09 02:08:05;;;;;;;;;;;;;;;1.67;88.39;97752.41;30002;983;1876;-59
2021/11/09 02:08:37;;;;;;;;;;;;;;;1.66;88.28;97748.09;30002;983;1876;-59
2021/11/09 02:09:13;;;;;;;;;;;;;;;1.66;88.42;97748.91;30002;982;1876;-59
2021/11/09 02:09:43;;;;;;;;;;;;;;;1.67;88.23;97749.75;30002;982;1876;-58
2021/11/09 02:10:15;;;;;;;;;;;;;;;1.69;88.33;97747.66;30002;982;1876;-58
2021/11/09 02:10:48;;;;;;;;;;;;;;;1.70;88.61;97751.16;30002;982;1876;-57
2021/11/09 02:11:19;;;;;;;;;;;;;;;1.68;88.62;97746.84;30002;982;1876;-59
2021/11/09 02:11:50;;;;;;;;;;;;;;;1.70;88.55;97748.50;30002;982;1876;-58
2021/11/09 02:12:21;;;;;;;;;;;;;;;1.69;88.52;97747.66;30001;983;1858;-58
2021/11/09 02:12:52;;;;;;;;;;;;;;;1.68;88.61;97740.69;30002;983;1871;-58
2021/11/09 02:13:24;;;;;;;;;;;;;;;1.68;88.53;97746.84;30001;983;1875;-59
2021/11/09 02:13:55;;;;;;;;;;;;;;;1.70;88.36;97749.31;30001;983;1875;-59
2021/11/09 02:14:25;;;;;;;;;;;;;;;1.69;88.45;97753.03;30001;983;1875;-58
2021/11/09 02:14:59;;;;;;;;;;;;;;;1.69;88.33;97747.66;30001;983;1876;-59
2021/11/09 02:15:31;;;;;;;;;;;;;;;1.69;88.45;97753.03;30001;983;1876;-58
2021/11/09 02:16:02;;;;;;;;;;;;;;;1.67;88.32;97749.75;30001;983;1876;-58
2021/11/09 02:16:35;;;;;;;;;;;;;;;1.66;88.55;97758.81;30001;982;1876;-58
2021/11/09 02:17:07;;;;;;;;;;;;;;;1.65;88.38;97752.63;30001;982;1858;-58
2021/11/09 02:17:39;;;;;;;;;;;;;;;1.66;88.34;97754.28;30001;982;1872;-58
2021/11/09 02:18:11;;;;;;;;;;;;;;;1.66;88.50;97754.28;30001;982;1876;-59
2021/11/09 02:18:42;;;;;;;;;;;;;;;1.66;88.40;97743.56;30001;982;1876;-56
2021/11/09 02:19:13;;;;;;;;;;;;;;;1.67;88.28;97750.56;30001;982;1876;-58
2021/11/09 02:19:44;;;;;;;;;;;;;;;1.68;88.51;97751.38;30001;982;1876;-58
2021/11/09 02:20:22;;;;;;;;;;;;;;;1.69;88.51;97753.03;30001;983;1875;-59
2021/11/09 02:20:57;;;;;;;;;;;;;;;1.71;88.48;97755.47;30001;983;1875;-58
2021/11/09 02:21:29;;;;;;;;;;;;;;;1.71;88.59;97753.63;30001;983;1858;-58
2021/11/09 02:22:03;;;;;;;;;;;;;;;1.72;88.43;97757.94;30001;983;1854;-59
2021/11/09 02:22:34;;;;;;;;;;;;;;;1.74;88.19;97766.53;30001;983;1876;-60
2021/11/09 02:23:05;;;;;;;;;;;;;;;1.77;88.26;97754.59;30001;983;1876;-59
2021/11/09 02:23:38;;;;;;;;;;;;;;;1.76;88.12;97759.13;30001;983;1876;-58
2021/11/09 02:24:09;;;;;;;;;;;;;;;1.76;88.26;97761.81;30001;982;1876;-58
2021/11/09 02:24:40;;;;;;;;;;;;;;;1.76;88.22;97761.81;30001;982;1876;-59
2021/11/09 02:25:13;;;;;;;;;;;;;;;1.75;88.21;97762.84;30001;982;1876;-60
2021/11/09 02:25:44;;;;;;;;;;;;;;;1.74;88.06;97755.84;30001;982;1876;-58
2021/11/09 02:26:17;;;;;;;;;;;;;;;1.74;88.08;97766.53;30001;982;1876;-58
2021/11/09 02:26:47;;;;;;;;;;;;;;;1.75;88.26;97757.47;30001;983;1858;-58
2021/11/09 02:27:19;;;;;;;;;;;;;;;1.76;88.21;97764.47;30001;983;1871;-59
2021/11/09 02:27:50;;;;;;;;;;;;;;;1.78;88.14;97765.09;30001;983;1875;-58
2021/11/09 02:28:21;;;;;;;;;;;;;;;1.77;88.34;97760.75;30001;983;1875;-58
2021/11/09 02:28:54;;;;;;;;;;;;;;;1.78;88.24;97762.41;30001;983;1875;-59
2021/11/09 02:29:25;;;;;;;;;;;;;;;1.79;88.40;97764.06;30001;983;1876;-59
2021/11/09 02:29:56;;;;;;;;;;;;;;;1.81;88.07;97756.62;30001;983;1876;-59
2021/11/09 02:30:27;;;;;;;;;;;;;;;1.82;88.24;97757.44;30001;983;1876;-58
2021/11/09 02:30:58;;;;;;;;;;;;;;;1.84;88.31;97756.19;30001;983;1876;-59
2021/11/09 02:31:30;;;;;;;;;;;;;;;1.86;88.35;97759.47;30001;969;1890;-59
2021/11/09 02:32:03;;;;;;;;;;;;;;;1.87;88.15;97749.59;30001;982;1858;-59
2021/11/09 02:32:34;;;;;;;;;;;;;;;1.90;88.12;97760.69;30001;982;1854;-58
2021/11/09 02:33:06;;;;;;;;;;;;;;;1.91;87.94;97756.97;30001;982;1876;-59
2021/11/09 02:33:38;;;;;;;;;;;;;;;1.93;88.11;97760.25;30001;982;1876;-58
2021/11/09 02:34:09;;;;;;;;;;;;;;;1.97;87.97;97760.66;30001;983;1875;-59
2021/11/09 02:34:40;;;;;;;;;;;;;;;1.99;87.98;97759.41;30001;983;1875;-59
2021/11/09 02:35:13;;;;;;;;;;;;;;;2.03;87.95;97753.63;30001;983;1875;-58
2021/11/09 02:35:44;;;;;;;;;;;;;;;2.05;88.14;97756.91;30001;983;1875;-59
2021/11/09 02:36:17;;;;;;;;;;;;;;;2.07;87.84;97755.66;30001;983;1875;-58
2021/11/09 02:36:48;;;;;;;;;;;;;;;2.13;87.73;97764.62;30001;983;1858;-59
2021/11/09 02:37:19;;;;;;;;;;;;;;;2.15;87.64;97763.38;30001;983;1871;-57
2021/11/09 02:37:51;;;;;;;;;;;;;;;2.16;87.58;97761.53;30001;983;1876;-57
2021/11/09 02:38:22;;;;;;;;;;;;;;;2.19;87.25;97764.59;30001;983;1876;-58
2021/11/09 02:38:53;;;;;;;;;;;;;;;2.21;87.32;97762.50;30001;983;1876;-58
2021/11/09 02:39:24;;;;;;;;;;;;;;;2.24;87.40;97766.63;30001;982;1876;-58
2021/11/09 02:39:55;;;;;;;;;;;;;;;2.26;87.08;97765.38;30001;982;1863;-58
2021/11/09 02:40:26;;;;;;;;;;;;;;;2.30;86.88;97773.78;30001;982;1876;-61
2021/11/09 02:40:58;;;;;;;;;;;;;;;2.31;87.03;97770.06;30001;982;1880;-60
2021/11/09 02:41:29;;;;;;;;;;;;;;;2.32;86.91;97774.38;30001;982;1880;-59
2021/11/09 02:41:59;;;;;;;;;;;;;;;2.33;86.84;97776.03;30001;983;1879;-59
2021/11/09 02:42:31;;;;;;;;;;;;;;;2.34;86.78;97778.50;30001;983;1880;-59
2021/11/09 02:43:05;;;;;;;;;;;;;;;2.36;86.96;97775.59;30001;983;1880;-59
2021/11/09 02:43:36;;;;;;;;;;;;;;;2.38;86.67;97781.56;30001;983;1880;-58
2021/11/09 02:44:07;;;;;;;;;;;;;;;2.39;86.69;97780.50;30001;983;1880;-58
2021/11/09 02:44:49;;;;;;;;;;;;;;;2.41;86.77;97778.44;30001;983;1862;-58
2021/11/09 02:45:28;;;;;;;;;;;;;;;2.42;86.66;97780.06;30001;983;1875;-59
2021/11/09 02:47:02;;;;;;;;;;;;;;;2.42;86.38;97773.91;30001;982;1880;-59
2021/11/09 02:47:59;;;;;;;;;;;;;;;2.40;86.26;97776.78;30001;982;1880;-58
2021/11/09 02:48:33;;;;;;;;;;;;;;;2.37;86.47;97776.41;30001;982;1880;-59
2021/11/09 02:49:25;;;;;;;;;;;;;;;2.36;87.01;97780.94;30001;982;1863;-58
2021/11/09 02:50:49;;;;;;;;;;;;;;;2.34;86.93;97778.50;30001;983;1880;-59
2021/11/09 02:51:29;;;;;;;;;;;;;;;2.35;86.92;97773.94;30001;983;1862;-59
2021/11/09 02:52:04;;;;;;;;;;;;;;;2.35;86.88;97776.63;30001;983;1875;-59
2021/11/09 02:52:40;;;;;;;;;;;;;;;2.36;87.05;97778.28;30001;983;1880;-59
2021/11/09 02:54:10;;;;;;;;;;;;;;;2.38;86.68;97778.06;30001;983;1876;-58
2021/11/09 02:54:44;;;;;;;;;;;;;;;2.36;87.05;97775.59;30001;982;1863;-59
2021/11/09 02:55:17;;;;;;;;;;;;;;;2.34;87.07;97775.81;30001;982;1876;-59
2021/11/09 02:55:53;;;;;;;;;;;;;;;2.34;86.96;97777.66;30001;982;1880;-59
2021/11/09 02:56:37;;;;;;;;;;;;;;;2.35;86.96;97768.59;30001;982;1880;-58
2021/11/09 02:57:19;;;;;;;;;;;;;;;2.36;87.02;97780.94;30001;983;1880;-58